Asherville, Indiana
Current Conditions -  °F | °C
As of 2:53 PM on Monday 22 Dec 2014 (Local Time) from KHUF Reporting Station
Overcast Overcast  
Wind Chill:   Ceiling: 3900
Heat Index:   Visibility: 10mi
Dew Point:   Wind: 13mph
Humidity: 80%   Direction: 130°SE
Pressure: 29.73"   Gusts: NA
Location:  39.5158°N, 87.1262°W
Report Text: KHUF 221953Z 13011KT 10SM SCT026 OVC039 08/05 A2973 RMK AO2 SLP070 T00830050
Loading
Personal Weather Stations






























Interactive Weather Map New forecast layout! Learn more

10-Day Weather Forecast

Advertisements
Track Severe Weather on mobile